sensor_id;sensor_type;location;lat;lon;timestamp;pressure;altitude;pressure_sealevel;temperature;humidity
77288;BME280;66345;42.694;23.346;2023-05-29T00:01:14;95293.03;;;13.63;81.82
77288;BME280;66345;42.694;23.346;2023-05-29T00:03:44;95296.31;;;13.58;81.58
77288;BME280;66345;42.694;23.346;2023-05-29T00:06:09;95298.63;;;13.48;81.94
77288;BME280;66345;42.694;23.346;2023-05-29T00:08:35;95300.72;;;13.39;83.06
77288;BME280;66345;42.694;23.346;2023-05-29T00:11:01;95301.31;;;13.48;82.57
77288;BME280;66345;42.694;23.346;2023-05-29T00:13:26;95304.50;;;13.70;81.55
77288;BME280;66345;42.694;23.346;2023-05-29T00:15:52;95303.47;;;13.71;81.05
77288;BME280;66345;42.694;23.346;2023-05-29T00:18:17;95304.31;;;13.65;81.73
77288;BME280;66345;42.694;23.346;2023-05-29T00:20:43;95301.81;;;13.70;81.43
77288;BME280;66345;42.694;23.346;2023-05-29T00:23:08;95302.72;;;13.50;82.44
77288;BME280;66345;42.694;23.346;2023-05-29T00:25:35;95297.88;;;13.34;82.63
77288;BME280;66345;42.694;23.346;2023-05-29T00:28:00;95301.56;;;13.33;82.77
77288;BME280;66345;42.694;23.346;2023-05-29T00:30:26;95304.25;;;13.26;83.37
77288;BME280;66345;42.694;23.346;2023-05-29T00:32:52;95299.09;;;13.31;83.44
77288;BME280;66345;42.694;23.346;2023-05-29T00:35:17;95290.09;;;13.26;83.46
77288;BME280;66345;42.694;23.346;2023-05-29T00:37:43;95290.31;;;13.31;83.75
77288;BME280;66345;42.694;23.346;2023-05-29T00:40:09;95291.34;;;13.23;83.48
77288;BME280;66345;42.694;23.346;2023-05-29T00:42:35;95291.56;;;13.09;83.73
77288;BME280;66345;42.694;23.346;2023-05-29T00:45:00;95301.19;;;13.03;84.17
77288;BME280;66345;42.694;23.346;2023-05-29T00:47:26;95301.00;;;12.91;84.69
77288;BME280;66345;42.694;23.346;2023-05-29T00:49:51;95300.19;;;12.91;85.21
77288;BME280;66345;42.694;23.346;2023-05-29T00:52:18;95292.38;;;13.02;84.91
77288;BME280;66345;42.694;23.346;2023-05-29T00:54:45;95292.53;;;13.34;83.76
77288;BME280;66345;42.694;23.346;2023-05-29T00:57:12;95289.88;;;13.34;83.11
77288;BME280;66345;42.694;23.346;2023-05-29T00:59:39;95286.84;;;13.11;83.44
77288;BME280;66345;42.694;23.346;2023-05-29T01:02:06;95294.25;;;12.95;84.20
77288;BME280;66345;42.694;23.346;2023-05-29T01:04:33;95291.59;;;12.82;84.49
77288;BME280;66345;42.694;23.346;2023-05-29T01:07:00;95293.06;;;12.85;84.87
77288;BME280;66345;42.694;23.346;2023-05-29T01:09:25;95290.38;;;12.85;84.76
77288;BME280;66345;42.694;23.346;2023-05-29T01:12:00;95289.34;;;12.92;84.55
77288;BME280;66345;42.694;23.346;2023-05-29T01:20:16;95288.97;;;12.56;85.76
77288;BME280;66345;42.694;23.346;2023-05-29T01:26:04;95292.03;;;12.59;85.82
77288;BME280;66345;42.694;23.346;2023-05-29T01:28:45;95290.78;;;12.62;85.55
77288;BME280;66345;42.694;23.346;2023-05-29T01:31:13;95290.56;;;12.76;84.53
77288;BME280;66345;42.694;23.346;2023-05-29T01:33:41;95294.28;;;12.69;85.08
77288;BME280;66345;42.694;23.346;2023-05-29T01:36:08;95285.28;;;12.63;85.39
77288;BME280;66345;42.694;23.346;2023-05-29T01:38:34;95282.63;;;12.57;85.63
77288;BME280;66345;42.694;23.346;2023-05-29T01:41:01;95285.69;;;12.60;85.32
77288;BME280;66345;42.694;23.346;2023-05-29T01:43:26;95289.38;;;12.59;84.92
77288;BME280;66345;42.694;23.346;2023-05-29T01:45:55;95281.38;;;12.66;84.79
77288;BME280;66345;42.694;23.346;2023-05-29T01:48:23;95287.31;;;12.61;84.52
77288;BME280;66345;42.694;23.346;2023-05-29T01:50:49;95278.13;;;12.50;85.20
77288;BME280;66345;42.694;23.346;2023-05-29T01:53:15;95281.22;;;12.47;85.73
77288;BME280;66345;42.694;23.346;2023-05-29T01:55:41;95279.38;;;12.41;85.94
77288;BME280;66345;42.694;23.346;2023-05-29T01:58:07;95277.94;;;12.32;86.17
77288;BME280;66345;42.694;23.346;2023-05-29T02:00:33;95276.69;;;12.28;86.39
77288;BME280;66345;42.694;23.346;2023-05-29T02:02:58;95282.44;;;12.25;86.74
77288;BME280;66345;42.694;23.346;2023-05-29T02:05:27;95282.00;;;12.21;86.98
77288;BME280;66345;42.694;23.346;2023-05-29T02:07:52;95276.28;;;12.44;86.15
77288;BME280;66345;42.694;23.346;2023-05-29T02:10:20;95273.78;;;12.69;85.26
77288;BME280;66345;42.694;23.346;2023-05-29T02:12:46;95281.97;;;12.81;84.56
77288;BME280;66345;42.694;23.346;2023-05-29T02:15:11;95284.66;;;12.74;84.77
77288;BME280;66345;42.694;23.346;2023-05-29T02:17:37;95269.91;;;12.72;84.18
77288;BME280;66345;42.694;23.346;2023-05-29T02:20:03;95274.00;;;12.61;84.51
77288;BME280;66345;42.694;23.346;2023-05-29T02:22:37;95271.16;;;12.56;84.81
77288;BME280;66345;42.694;23.346;2023-05-29T02:25:02;95279.56;;;12.40;85.26
77288;BME280;66345;42.694;23.346;2023-05-29T02:27:28;95271.38;;;12.41;85.68
77288;BME280;66345;42.694;23.346;2023-05-29T02:29:53;95274.66;;;12.50;85.31
77288;BME280;66345;42.694;23.346;2023-05-29T02:32:19;95278.72;;;12.59;84.83
77288;BME280;66345;42.694;23.346;2023-05-29T02:34:57;95284.47;;;12.56;84.72
77288;BME280;66345;42.694;23.346;2023-05-29T02:37:31;95283.88;;;12.41;85.11
77288;BME280;66345;42.694;23.346;2023-05-29T02:39:57;95281.81;;;12.30;85.87
77288;BME280;66345;42.694;23.346;2023-05-29T02:42:25;95287.34;;;12.35;85.62
77288;BME280;66345;42.694;23.346;2023-05-29T02:44:53;95293.69;;;12.40;85.55
77288;BME280;66345;42.694;23.346;2023-05-29T02:47:19;95289.78;;;12.36;85.68
77288;BME280;66345;42.694;23.346;2023-05-29T02:49:47;95286.72;;;12.26;86.09
77288;BME280;66345;42.694;23.346;2023-05-29T02:52:18;95291.84;;;12.34;86.18
77288;BME280;66345;42.694;23.346;2023-05-29T02:54:48;95289.59;;;12.38;85.81
77288;BME280;66345;42.694;23.346;2023-05-29T02:57:22;95290.41;;;12.38;85.52
77288;BME280;66345;42.694;23.346;2023-05-29T02:59:47;95283.66;;;12.36;86.48
77288;BME280;66345;42.694;23.346;2023-05-29T03:02:13;95282.22;;;12.33;86.44
77288;BME280;66345;42.694;23.346;2023-05-29T03:04:38;95288.97;;;12.42;86.31
77288;BME280;66345;42.694;23.346;2023-05-29T03:07:04;95285.28;;;12.50;86.57
77288;BME280;66345;42.694;23.346;2023-05-29T03:09:29;95286.09;;;12.57;86.21
77288;BME280;66345;42.694;23.346;2023-05-29T03:11:54;95289.38;;;12.66;86.47
77288;BME280;66345;42.694;23.346;2023-05-29T03:14:20;95295.31;;;12.68;86.15
77288;BME280;66345;42.694;23.346;2023-05-29T03:16:47;95296.94;;;12.75;86.00
77288;BME280;66345;42.694;23.346;2023-05-29T03:19:13;95297.13;;;12.87;85.11
77288;BME280;66345;42.694;23.346;2023-05-29T03:21:38;95290.19;;;12.86;85.31
77288;BME280;66345;42.694;23.346;2023-05-29T03:24:04;95293.19;;;13.10;84.15
77288;BME280;66345;42.694;23.346;2023-05-29T03:26:30;95302.59;;;13.19;84.37
77288;BME280;66345;42.694;23.346;2023-05-29T03:28:56;95302.75;;;13.37;82.79
77288;BME280;66345;42.694;23.346;2023-05-29T03:31:21;95301.13;;;13.36;82.83
77288;BME280;66345;42.694;23.346;2023-05-29T03:33:47;95310.56;;;13.45;82.57
77288;BME280;66345;42.694;23.346;2023-05-29T03:36:13;95308.66;;;13.52;82.35
77288;BME280;66345;42.694;23.346;2023-05-29T03:38:38;95309.09;;;13.49;82.14
77288;BME280;66345;42.694;23.346;2023-05-29T03:41:04;95307.69;;;13.40;82.89
77288;BME280;66345;42.694;23.346;2023-05-29T03:43:29;95314.88;;;13.40;83.74
77288;BME280;66345;42.694;23.346;2023-05-29T03:45:55;95324.28;;;13.42;83.45
77288;BME280;66345;42.694;23.346;2023-05-29T03:48:20;95321.97;;;13.59;83.05
77288;BME280;66345;42.694;23.346;2023-05-29T03:50:46;95320.44;;;13.83;82.40
77288;BME280;66345;42.694;23.346;2023-05-29T03:53:12;95323.84;;;13.90;81.82
77288;BME280;66345;42.694;23.346;2023-05-29T03:55:37;95318.84;;;14.13;81.36
77288;BME280;66345;42.694;23.346;2023-05-29T03:58:03;95317.78;;;14.14;81.35
77288;BME280;66345;42.694;23.346;2023-05-29T04:00:28;95320.75;;;14.31;80.26
77288;BME280;66345;42.694;23.346;2023-05-29T04:02:55;95330.03;;;14.29;80.74
77288;BME280;66345;42.694;23.346;2023-05-29T04:05:21;95332.91;;;14.21;80.87
77288;BME280;66345;42.694;23.346;2023-05-29T04:07:46;95338.44;;;14.26;81.34
77288;BME280;66345;42.694;23.346;2023-05-29T04:10:12;95342.22;;;14.50;80.62
77288;BME280;66345;42.694;23.346;2023-05-29T04:12:37;95349.13;;;14.57;79.68
77288;BME280;66345;42.694;23.346;2023-05-29T04:15:03;95350.03;;;14.44;79.70
77288;BME280;66345;42.694;23.346;2023-05-29T04:17:29;95346.97;;;14.41;80.72
77288;BME280;66345;42.694;23.346;2023-05-29T04:19:54;95348.00;;;14.71;79.67
77288;BME280;66345;42.694;23.346;2023-05-29T04:22:20;95340.31;;;15.07;78.24
77288;BME280;66345;42.694;23.346;2023-05-29T04:24:46;95341.69;;;14.91;78.82
77288;BME280;66345;42.694;23.346;2023-05-29T04:27:11;95339.66;;;14.86;78.61
77288;BME280;66345;42.694;23.346;2023-05-29T04:29:41;95339.50;;;15.06;78.05
77288;BME280;66345;42.694;23.346;2023-05-29T04:32:08;95340.72;;;15.29;76.65
77288;BME280;66345;42.694;23.346;2023-05-29T04:34:35;95342.03;;;15.56;75.57
77288;BME280;66345;42.694;23.346;2023-05-29T04:37:02;95340.31;;;15.68;74.50
77288;BME280;66345;42.694;23.346;2023-05-29T04:39:28;95351.56;;;15.52;74.79
77288;BME280;66345;42.694;23.346;2023-05-29T04:41:54;95341.56;;;15.66;74.53
77288;BME280;66345;42.694;23.346;2023-05-29T04:44:19;95350.03;;;15.81;74.87
77288;BME280;66345;42.694;23.346;2023-05-29T04:46:44;95345.94;;;15.78;73.83
77288;BME280;66345;42.694;23.346;2023-05-29T04:49:11;95359.59;;;15.52;75.11
77288;BME280;66345;42.694;23.346;2023-05-29T04:51:38;95357.25;;;15.80;73.52
77288;BME280;66345;42.694;23.346;2023-05-29T04:54:06;95354.03;;;15.53;73.87
77288;BME280;66345;42.694;23.346;2023-05-29T04:56:32;95362.91;;;15.72;73.70
77288;BME280;66345;42.694;23.346;2023-05-29T04:58:57;95363.53;;;15.86;72.98
77288;BME280;66345;42.694;23.346;2023-05-29T05:01:24;95366.78;;;16.06;71.88
77288;BME280;66345;42.694;23.346;2023-05-29T05:03:50;95374.25;;;16.34;71.13
77288;BME280;66345;42.694;23.346;2023-05-29T05:06:17;95375.88;;;16.35;70.44
77288;BME280;66345;42.694;23.346;2023-05-29T05:08:43;95381.06;;;16.49;70.00
77288;BME280;66345;42.694;23.346;2023-05-29T05:11:09;95379.69;;;16.58;69.40
77288;BME280;66345;42.694;23.346;2023-05-29T05:13:35;95374.78;;;16.55;69.48
77288;BME280;66345;42.694;23.346;2023-05-29T05:16:00;95387.97;;;16.56;69.90
77288;BME280;66345;42.694;23.346;2023-05-29T05:18:26;95389.09;;;16.49;69.64
77288;BME280;66345;42.694;23.346;2023-05-29T05:20:51;95385.69;;;16.42;69.76
77288;BME280;66345;42.694;23.346;2023-05-29T05:23:17;95391.31;;;16.52;69.79
77288;BME280;66345;42.694;23.346;2023-05-29T05:25:42;95382.56;;;16.75;68.77
77288;BME280;66345;42.694;23.346;2023-05-29T05:28:08;95382.69;;;16.91;68.42
77288;BME280;66345;42.694;23.346;2023-05-29T05:30:33;95388.28;;;16.90;68.43
77288;BME280;66345;42.694;23.346;2023-05-29T05:32:59;95385.44;;;17.38;66.86
77288;BME280;66345;42.694;23.346;2023-05-29T05:35:24;95382.84;;;18.30;64.17
77288;BME280;66345;42.694;23.346;2023-05-29T05:37:50;95386.00;;;18.56;63.57
77288;BME280;66345;42.694;23.346;2023-05-29T05:40:16;95380.31;;;19.65;59.11
77288;BME280;66345;42.694;23.346;2023-05-29T05:42:41;95385.75;;;19.03;60.71
77288;BME280;66345;42.694;23.346;2023-05-29T05:45:07;95379.00;;;20.11;57.93
77288;BME280;66345;42.694;23.346;2023-05-29T05:47:33;95379.41;;;19.59;59.15
77288;BME280;66345;42.694;23.346;2023-05-29T05:49:58;95377.19;;;19.95;57.77
77288;BME280;66345;42.694;23.346;2023-05-29T05:52:24;95380.16;;;20.91;55.73
77288;BME280;66345;42.694;23.346;2023-05-29T05:54:51;95374.13;;;21.85;52.98
77288;BME280;66345;42.694;23.346;2023-05-29T05:57:17;95378.13;;;22.35;51.33
77288;BME280;66345;42.694;23.346;2023-05-29T05:59:42;95382.09;;;22.95;49.58
77288;BME280;66345;42.694;23.346;2023-05-29T06:02:08;95371.69;;;24.15;45.95
77288;BME280;66345;42.694;23.346;2023-05-29T06:04:33;95377.19;;;25.08;43.22
77288;BME280;66345;42.694;23.346;2023-05-29T06:06:58;95383.19;;;23.71;46.92
77288;BME280;66345;42.694;23.346;2023-05-29T06:09:24;95372.13;;;25.31;43.70
77288;BME280;66345;42.694;23.346;2023-05-29T06:11:51;95370.34;;;25.50;42.05
77288;BME280;66345;42.694;23.346;2023-05-29T06:14:16;95371.72;;;25.77;41.41
77288;BME280;66345;42.694;23.346;2023-05-29T06:16:42;95375.78;;;26.08;41.17
77288;BME280;66345;42.694;23.346;2023-05-29T06:19:08;95387.63;;;26.84;38.77
77288;BME280;66345;42.694;23.346;2023-05-29T06:21:34;95385.81;;;25.55;41.59
77288;BME280;66345;42.694;23.346;2023-05-29T06:23:59;95392.84;;;24.77;43.24
77288;BME280;66345;42.694;23.346;2023-05-29T06:26:24;95385.50;;;24.18;45.36
77288;BME280;66345;42.694;23.346;2023-05-29T06:28:50;95392.91;;;23.57;46.25
77288;BME280;66345;42.694;23.346;2023-05-29T06:31:16;95392.41;;;22.98;48.45
77288;BME280;66345;42.694;23.346;2023-05-29T06:33:41;95388.34;;;23.37;46.47
77288;BME280;66345;42.694;23.346;2023-05-29T06:36:07;95380.13;;;25.17;42.88
77288;BME280;66345;42.694;23.346;2023-05-29T06:38:32;95386.16;;;27.10;38.85
77288;BME280;66345;42.694;23.346;2023-05-29T06:40:58;95385.06;;;27.63;37.64
77288;BME280;66345;42.694;23.346;2023-05-29T06:43:23;95374.50;;;28.99;35.06
77288;BME280;66345;42.694;23.346;2023-05-29T06:45:49;95372.34;;;28.32;35.22
77288;BME280;66345;42.694;23.346;2023-05-29T06:48:14;95382.38;;;29.00;35.18
77288;BME280;66345;42.694;23.346;2023-05-29T06:50:40;95380.34;;;30.27;32.70
77288;BME280;66345;42.694;23.346;2023-05-29T06:53:05;95373.09;;;29.46;33.69
77288;BME280;66345;42.694;23.346;2023-05-29T06:55:30;95386.03;;;29.54;33.67
77288;BME280;66345;42.694;23.346;2023-05-29T06:57:56;95380.59;;;28.00;36.14
77288;BME280;66345;42.694;23.346;2023-05-29T07:00:21;95383.16;;;26.50;39.46
77288;BME280;66345;42.694;23.346;2023-05-29T07:02:48;95374.75;;;26.71;39.87
77288;BME280;66345;42.694;23.346;2023-05-29T07:05:13;95386.34;;;26.34;38.91
77288;BME280;66345;42.694;23.346;2023-05-29T07:07:39;95370.44;;;26.46;40.04
77288;BME280;66345;42.694;23.346;2023-05-29T07:10:05;95371.06;;;25.90;41.21
77288;BME280;66345;42.694;23.346;2023-05-29T07:12:31;95379.69;;;26.45;40.61
77288;BME280;66345;42.694;23.346;2023-05-29T07:14:56;95382.63;;;28.90;35.41
77288;BME280;66345;42.694;23.346;2023-05-29T07:17:22;95376.81;;;29.06;32.84
77288;BME280;66345;42.694;23.346;2023-05-29T07:19:47;95386.06;;;27.34;36.54
77288;BME280;66345;42.694;23.346;2023-05-29T07:22:15;95378.44;;;26.99;37.64
77288;BME280;66345;42.694;23.346;2023-05-29T07:24:40;95379.38;;;25.75;40.80
77288;BME280;66345;42.694;23.346;2023-05-29T07:27:06;95383.03;;;25.89;40.88
77288;BME280;66345;42.694;23.346;2023-05-29T07:29:31;95377.47;;;25.99;40.93
77288;BME280;66345;42.694;23.346;2023-05-29T07:31:56;95373.06;;;25.50;40.83
77288;BME280;66345;42.694;23.346;2023-05-29T07:34:22;95376.66;;;23.77;44.26
77288;BME280;66345;42.694;23.346;2023-05-29T07:37:00;95387.22;;;22.97;46.95
77288;BME280;66345;42.694;23.346;2023-05-29T07:39:26;95378.78;;;23.95;44.98
77288;BME280;66345;42.694;23.346;2023-05-29T07:41:52;95382.44;;;24.45;44.74
77288;BME280;66345;42.694;23.346;2023-05-29T07:44:17;95383.69;;;26.28;40.54
77288;BME280;66345;42.694;23.346;2023-05-29T07:46:43;95380.53;;;26.45;39.13
77288;BME280;66345;42.694;23.346;2023-05-29T07:49:08;95377.72;;;28.37;35.76
77288;BME280;66345;42.694;23.346;2023-05-29T07:51:34;95371.19;;;28.88;35.64
77288;BME280;66345;42.694;23.346;2023-05-29T07:53:59;95359.22;;;29.88;32.12
77288;BME280;66345;42.694;23.346;2023-05-29T07:56:24;95368.22;;;27.09;36.93
77288;BME280;66345;42.694;23.346;2023-05-29T07:58:50;95360.88;;;30.28;33.29
77288;BME280;66345;42.694;23.346;2023-05-29T08:01:18;95357.66;;;30.83;31.53
77288;BME280;66345;42.694;23.346;2023-05-29T08:03:44;95363.44;;;31.68;29.29
77288;BME280;66345;42.694;23.346;2023-05-29T08:06:10;95364.81;;;29.82;32.47
77288;BME280;66345;42.694;23.346;2023-05-29T08:08:35;95361.91;;;30.58;31.67
77288;BME280;66345;42.694;23.346;2023-05-29T08:11:01;95365.00;;;32.72;27.83
77288;BME280;66345;42.694;23.346;2023-05-29T08:13:26;95366.53;;;33.53;26.62
77288;BME280;66345;42.694;23.346;2023-05-29T08:15:52;95365.13;;;33.47;26.63
77288;BME280;66345;42.694;23.346;2023-05-29T08:18:18;95364.81;;;32.09;28.69
77288;BME280;66345;42.694;23.346;2023-05-29T08:20:43;95364.78;;;34.14;26.51
77288;BME280;66345;42.694;23.346;2023-05-29T08:23:10;95369.41;;;32.94;27.12
77288;BME280;66345;42.694;23.346;2023-05-29T08:25:35;95366.63;;;30.66;30.85
77288;BME280;66345;42.694;23.346;2023-05-29T08:28:01;95368.59;;;31.87;28.48
77288;BME280;66345;42.694;23.346;2023-05-29T08:30:26;95368.59;;;30.75;30.38
77288;BME280;66345;42.694;23.346;2023-05-29T08:32:51;95373.22;;;32.51;27.18
77288;BME280;66345;42.694;23.346;2023-05-29T08:35:17;95366.91;;;32.03;28.74
77288;BME280;66345;42.694;23.346;2023-05-29T08:37:43;95368.38;;;30.54;29.80
77288;BME280;66345;42.694;23.346;2023-05-29T08:40:09;95369.09;;;29.08;32.30
77288;BME280;66345;42.694;23.346;2023-05-29T08:42:45;95374.53;;;27.75;34.44
77288;BME280;66345;42.694;23.346;2023-05-29T08:45:13;95367.38;;;25.46;38.16
77288;BME280;66345;42.694;23.346;2023-05-29T08:47:40;95358.91;;;28.99;32.10
77288;BME280;66345;42.694;23.346;2023-05-29T08:50:07;95364.44;;;27.89;33.33
77288;BME280;66345;42.694;23.346;2023-05-29T08:52:34;95351.63;;;27.25;34.25
77288;BME280;66345;42.694;23.346;2023-05-29T08:55:03;95351.66;;;26.44;36.32
77288;BME280;66345;42.694;23.346;2023-05-29T08:57:29;95357.06;;;25.14;38.14
77288;BME280;66345;42.694;23.346;2023-05-29T08:59:56;95357.41;;;25.03;39.00
77288;BME280;66345;42.694;23.346;2023-05-29T09:02:21;95350.34;;;25.02;38.74
77288;BME280;66345;42.694;23.346;2023-05-29T09:04:47;95342.97;;;24.68;39.64
77288;BME280;66345;42.694;23.346;2023-05-29T09:07:19;95346.38;;;24.84;39.03
77288;BME280;66345;42.694;23.346;2023-05-29T09:09:48;95341.88;;;25.08;38.29
77288;BME280;66345;42.694;23.346;2023-05-29T09:12:14;95336.63;;;25.22;37.81
77288;BME280;66345;42.694;23.346;2023-05-29T09:14:44;95334.16;;;24.32;39.48
77288;BME280;66345;42.694;23.346;2023-05-29T09:17:12;95339.41;;;24.73;38.58
77288;BME280;66345;42.694;23.346;2023-05-29T09:19:38;95335.94;;;24.02;39.86
77288;BME280;66345;42.694;23.346;2023-05-29T09:22:07;95321.50;;;24.17;39.57
77288;BME280;66345;42.694;23.346;2023-05-29T09:24:34;95328.41;;;23.79;41.12
77288;BME280;66345;42.694;23.346;2023-05-29T09:27:00;95324.03;;;24.97;37.52
77288;BME280;66345;42.694;23.346;2023-05-29T09:29:28;95319.28;;;24.34;39.44
77288;BME280;66345;42.694;23.346;2023-05-29T09:31:55;95319.53;;;23.48;41.58
77288;BME280;66345;42.694;23.346;2023-05-29T09:34:23;95316.31;;;23.25;43.10
77288;BME280;66345;42.694;23.346;2023-05-29T09:36:50;95315.63;;;23.95;42.20
77288;BME280;66345;42.694;23.346;2023-05-29T09:39:16;95313.78;;;27.23;34.99
77288;BME280;66345;42.694;23.346;2023-05-29T09:41:43;95298.59;;;30.03;29.15
77288;BME280;66345;42.694;23.346;2023-05-29T09:44:15;95298.31;;;31.31;27.12
77288;BME280;66345;42.694;23.346;2023-05-29T09:46:41;95299.88;;;29.97;29.44
77288;BME280;66345;42.694;23.346;2023-05-29T09:49:12;95297.00;;;28.95;31.01
77288;BME280;66345;42.694;23.346;2023-05-29T09:51:38;95306.16;;;26.50;35.70
77288;BME280;66345;42.694;23.346;2023-05-29T09:54:19;95294.03;;;25.70;38.09
77288;BME280;66345;42.694;23.346;2023-05-29T09:56:45;95293.06;;;25.03;38.42
77288;BME280;66345;42.694;23.346;2023-05-29T09:59:15;95298.38;;;26.62;35.48
77288;BME280;66345;42.694;23.346;2023-05-29T10:01:42;95287.25;;;27.43;34.67
77288;BME280;66345;42.694;23.346;2023-05-29T10:04:10;95277.63;;;28.33;32.07
77288;BME280;66345;42.694;23.346;2023-05-29T10:06:37;95278.22;;;29.24;31.25
77288;BME280;66345;42.694;23.346;2023-05-29T10:09:05;95274.56;;;31.43;27.75
77288;BME280;66345;42.694;23.346;2023-05-29T10:11:33;95275.03;;;32.60;25.40
77288;BME280;66345;42.694;23.346;2023-05-29T10:14:00;95266.41;;;32.20;26.47
77288;BME280;66345;42.694;23.346;2023-05-29T10:16:28;95286.19;;;30.54;27.91
77288;BME280;66345;42.694;23.346;2023-05-29T10:18:55;95282.16;;;30.51;27.09
77288;BME280;66345;42.694;23.346;2023-05-29T10:21:22;95267.00;;;32.25;24.83
77288;BME280;66345;42.694;23.346;2023-05-29T10:23:50;95276.84;;;32.56;24.66
77288;BME280;66345;42.694;23.346;2023-05-29T10:26:21;95266.19;;;32.75;24.54
77288;BME280;66345;42.694;23.346;2023-05-29T10:29:17;95275.91;;;30.68;27.78
77288;BME280;66345;42.694;23.346;2023-05-29T10:32:19;95272.03;;;30.86;28.06
77288;BME280;66345;42.694;23.346;2023-05-29T10:37:40;95269.06;;;27.24;32.77
77288;BME280;66345;42.694;23.346;2023-05-29T10:40:09;95273.13;;;26.75;34.48
77288;BME280;66345;42.694;23.346;2023-05-29T10:42:46;95268.53;;;25.42;36.39
77288;BME280;66345;42.694;23.346;2023-05-29T10:47:53;95274.28;;;24.73;38.61
77288;BME280;66345;42.694;23.346;2023-05-29T10:50:38;95273.31;;;24.04;40.22
77288;BME280;66345;42.694;23.346;2023-05-29T10:53:07;95260.38;;;23.86;40.48
77288;BME280;66345;42.694;23.346;2023-05-29T10:55:39;95261.47;;;23.90;40.18
77288;BME280;66345;42.694;23.346;2023-05-29T10:58:06;95247.84;;;24.00;40.18
77288;BME280;66345;42.694;23.346;2023-05-29T11:00:32;95246.63;;;23.57;41.38
77288;BME280;66345;42.694;23.346;2023-05-29T11:03:06;95249.75;;;22.89;41.88
77288;BME280;66345;42.694;23.346;2023-05-29T11:05:32;95245.69;;;23.07;41.34
77288;BME280;66345;42.694;23.346;2023-05-29T11:08:01;95238.91;;;23.09;42.05
77288;BME280;66345;42.694;23.346;2023-05-29T11:10:43;95233.72;;;24.03;39.91
77288;BME280;66345;42.694;23.346;2023-05-29T11:13:10;95235.66;;;23.97;40.56
77288;BME280;66345;42.694;23.346;2023-05-29T11:15:37;95231.78;;;24.08;39.00
77288;BME280;66345;42.694;23.346;2023-05-29T11:18:07;95234.31;;;24.44;38.49
77288;BME280;66345;42.694;23.346;2023-05-29T11:25:23;95232.66;;;23.24;40.78
77288;BME280;66345;42.694;23.346;2023-05-29T11:27:49;95227.53;;;23.22;41.19
77288;BME280;66345;42.694;23.346;2023-05-29T11:30:17;95224.44;;;23.49;40.73
77288;BME280;66345;42.694;23.346;2023-05-29T11:32:45;95223.13;;;24.12;38.83
77288;BME280;66345;42.694;23.346;2023-05-29T11:35:11;95224.94;;;24.21;38.10
77288;BME280;66345;42.694;23.346;2023-05-29T11:37:39;95226.44;;;23.98;38.54
77288;BME280;66345;42.694;23.346;2023-05-29T11:40:08;95217.97;;;23.40;39.39
77288;BME280;66345;42.694;23.346;2023-05-29T11:42:35;95218.84;;;23.25;40.16
77288;BME280;66345;42.694;23.346;2023-05-29T11:45:14;95218.75;;;23.61;39.56
77288;BME280;66345;42.694;23.346;2023-05-29T11:48:01;95222.81;;;23.53;40.00
77288;BME280;66345;42.694;23.346;2023-05-29T11:50:28;95221.25;;;23.27;40.47
77288;BME280;66345;42.694;23.346;2023-05-29T11:52:55;95210.38;;;23.52;40.67
77288;BME280;66345;42.694;23.346;2023-05-29T11:55:21;95215.31;;;23.20;41.61
77288;BME280;66345;42.694;23.346;2023-05-29T11:57:48;95225.16;;;22.85;41.69
77288;BME280;66345;42.694;23.346;2023-05-29T12:00:15;95239.63;;;22.03;46.78
77288;BME280;66345;42.694;23.346;2023-05-29T12:02:41;95230.22;;;21.43;49.48
77288;BME280;66345;42.694;23.346;2023-05-29T12:05:08;95237.78;;;21.41;50.81
77288;BME280;66345;42.694;23.346;2023-05-29T12:07:34;95235.78;;;20.84;52.30
77288;BME280;66345;42.694;23.346;2023-05-29T12:10:13;95247.88;;;20.44;55.00
77288;BME280;66345;42.694;23.346;2023-05-29T12:12:43;95255.47;;;20.25;66.14
77288;BME280;66345;42.694;23.346;2023-05-29T12:15:11;95267.63;;;19.35;73.73
77288;BME280;66345;42.694;23.346;2023-05-29T12:17:39;95271.84;;;18.75;75.86
77288;BME280;66345;42.694;23.346;2023-05-29T12:20:06;95273.88;;;18.85;82.88
77288;BME280;66345;42.694;23.346;2023-05-29T12:22:38;95271.78;;;18.70;78.70
77288;BME280;66345;42.694;23.346;2023-05-29T12:25:14;95277.56;;;18.34;77.83
77288;BME280;66345;42.694;23.346;2023-05-29T12:27:45;95290.34;;;18.26;78.70
77288;BME280;66345;42.694;23.346;2023-05-29T12:30:20;95285.75;;;18.10;74.36
77288;BME280;66345;42.694;23.346;2023-05-29T12:32:49;95288.91;;;17.79;76.14
77288;BME280;66345;42.694;23.346;2023-05-29T12:37:52;95290.25;;;17.41;73.50
77288;BME280;66345;42.694;23.346;2023-05-29T12:40:18;95284.19;;;17.34;83.27
77288;BME280;66345;42.694;23.346;2023-05-29T12:42:46;95281.47;;;17.45;76.93
77288;BME280;66345;42.694;23.346;2023-05-29T12:45:12;95278.22;;;17.43;80.55
77288;BME280;66345;42.694;23.346;2023-05-29T12:47:38;95279.28;;;17.42;76.38
77288;BME280;66345;42.694;23.346;2023-05-29T12:50:26;95274.84;;;17.36;82.75
77288;BME280;66345;42.694;23.346;2023-05-29T12:53:05;95273.03;;;17.25;81.96
77288;BME280;66345;42.694;23.346;2023-05-29T12:55:33;95271.91;;;17.50;84.31
77288;BME280;66345;42.694;23.346;2023-05-29T12:58:02;95275.28;;;17.97;84.03
77288;BME280;66345;42.694;23.346;2023-05-29T13:00:28;95262.78;;;18.02;84.64
77288;BME280;66345;42.694;23.346;2023-05-29T13:02:54;95266.72;;;18.28;85.08
77288;BME280;66345;42.694;23.346;2023-05-29T13:05:19;95258.63;;;18.74;85.11
77288;BME280;66345;42.694;23.346;2023-05-29T13:07:48;95259.03;;;18.99;77.52
77288;BME280;66345;42.694;23.346;2023-05-29T13:10:14;95261.44;;;19.18;74.62
77288;BME280;66345;42.694;23.346;2023-05-29T13:12:41;95261.09;;;19.31;70.73